createdAt,value
2019-04-30T00:01:36.159Z,98822.56
2019-04-30T00:04:06.395Z,98829.59
2019-04-30T00:06:39.341Z,98834.09
2019-04-30T00:09:09.711Z,98830.05
2019-04-30T00:11:37.393Z,98834.61
2019-04-30T00:14:06.220Z,98824.13
2019-04-30T00:16:36.199Z,98824.16
2019-04-30T00:19:06.146Z,98826.13
2019-04-30T00:21:36.119Z,98828.92
2019-04-30T00:24:10.000Z,98828.28
2019-04-30T00:26:35.616Z,98831.34
2019-04-30T00:29:05.113Z,98824.68
2019-04-30T00:31:35.016Z,98829.96
2019-04-30T00:34:05.047Z,98826.66
2019-04-30T00:36:37.257Z,98829.39
2019-04-30T00:39:07.153Z,98824.07
2019-04-30T00:41:39.939Z,98833.29
2019-04-30T00:44:06.882Z,98831.08
2019-04-30T00:46:36.478Z,98835.81
2019-04-30T00:49:09.807Z,98838.73
2019-04-30T00:51:35.888Z,98839.94
2019-04-30T00:54:05.653Z,98836.19
2019-04-30T00:56:35.512Z,98836.89
2019-04-30T00:59:07.045Z,98834.55
2019-04-30T01:01:43.484Z,98841.73
2019-04-30T01:04:28.209Z,98832.98
2019-04-30T01:07:00.284Z,98841.95
2019-04-30T01:09:29.270Z,98843.02
2019-04-30T01:11:57.996Z,98837.87
2019-04-30T01:14:28.419Z,98838.64
2019-04-30T01:16:59.293Z,98835.86
2019-04-30T01:19:32.150Z,98834.69
2019-04-30T01:21:59.445Z,98832.91
2019-04-30T01:24:31.638Z,98836.30
2019-04-30T01:27:06.698Z,98847.66
2019-04-30T01:29:40.779Z,98841.64
2019-04-30T01:32:03.456Z,98844.14
2019-04-30T01:34:32.179Z,98844.91
2019-04-30T01:37:00.941Z,98839.16
2019-04-30T01:39:31.609Z,98838.61
2019-04-30T01:42:02.999Z,98835.93
2019-04-30T01:44:31.823Z,98839.19
2019-04-30T01:47:00.557Z,98832.23
2019-04-30T01:49:41.560Z,98828.59
2019-04-30T01:52:00.970Z,98830.29
2019-04-30T01:54:29.921Z,98831.81
2019-04-30T01:57:19.314Z,98836.73
2019-04-30T02:00:09.749Z,98833.34
2019-04-30T02:02:39.915Z,98829.19
2019-04-30T02:05:09.004Z,98830.41
2019-04-30T02:07:40.148Z,98820.61
2019-04-30T02:10:09.601Z,98814.66
2019-04-30T02:12:39.259Z,98827.99
2019-04-30T02:15:09.525Z,98818.71
2019-04-30T02:17:38.913Z,98815.64
2019-04-30T02:20:08.925Z,98817.34
2019-04-30T02:22:38.946Z,98803.58
2019-04-30T02:25:09.760Z,98814.66
2019-04-30T02:27:39.070Z,98813.96
2019-04-30T02:30:11.125Z,98810.88
2019-04-30T02:32:40.438Z,98816.41
2019-04-30T02:35:13.699Z,98815.92
2019-04-30T02:38:01.303Z,98811.95
2019-04-30T02:40:32.511Z,98814.63
2019-04-30T02:43:02.093Z,98823.94
2019-04-30T02:45:32.898Z,98818.53
2019-04-30T02:48:03.487Z,98809.83
2019-04-30T02:50:34.728Z,98816.28
2019-04-30T02:53:05.756Z,98807.17
2019-04-30T02:55:44.541Z,98811.13
2019-04-30T02:58:13.445Z,98814.33
2019-04-30T03:00:42.165Z,98816.08
2019-04-30T03:03:10.887Z,98809.55
2019-04-30T03:05:39.654Z,98814.82
2019-04-30T03:08:09.663Z,98818.09
2019-04-30T03:10:40.186Z,98821.72
2019-04-30T03:13:09.856Z,98826.25
2019-04-30T03:15:39.469Z,98824.78
2019-04-30T03:18:13.032Z,98823.34
2019-04-30T03:20:49.774Z,98823.13
2019-04-30T03:23:19.549Z,98825.13
2019-04-30T03:25:50.191Z,98822.84
2019-04-30T03:28:20.233Z,98827.53
2019-04-30T03:30:52.018Z,98821.98
2019-04-30T03:33:22.943Z,98824.59
2019-04-30T03:35:53.959Z,98823.45
2019-04-30T03:38:21.587Z,98820.70
2019-04-30T03:40:50.472Z,98822.45
2019-04-30T03:43:20.387Z,98824.61
2019-04-30T03:45:49.904Z,98822.70
2019-04-30T03:48:20.025Z,98825.82
2019-04-30T03:50:55.675Z,98820.57
2019-04-30T03:53:20.208Z,98816.73
2019-04-30T03:55:50.589Z,98818.06
2019-04-30T03:58:21.169Z,98821.28
2019-04-30T04:01:03.735Z,98821.98
2019-04-30T04:03:34.154Z,98825.50
2019-04-30T04:06:21.480Z,98835.33
2019-04-30T04:09:01.027Z,98831.72
2019-04-30T04:11:31.327Z,98834.34
2019-04-30T04:14:00.044Z,98834.17
2019-04-30T04:16:31.915Z,98828.28
2019-04-30T04:18:59.457Z,98817.73
2019-04-30T04:21:30.054Z,98824.38
2019-04-30T04:24:00.203Z,98826.47
2019-04-30T04:26:29.889Z,98826.29
2019-04-30T04:28:59.441Z,98828.94
2019-04-30T04:31:29.898Z,98833.41
2019-04-30T04:34:00.073Z,98840.67
2019-04-30T04:36:30.253Z,98845.55
2019-04-30T04:39:00.417Z,98841.70
2019-04-30T04:41:29.622Z,98840.92
2019-04-30T04:44:00.206Z,98849.59
2019-04-30T04:46:30.768Z,98854.12
2019-04-30T04:48:59.767Z,98852.02
2019-04-30T04:51:38.126Z,98854.76
2019-04-30T04:54:00.148Z,98857.02
2019-04-30T04:56:30.458Z,98864.13
2019-04-30T04:59:00.233Z,98865.80
2019-04-30T05:01:30.588Z,98866.47
2019-04-30T05:03:59.313Z,98868.27
2019-04-30T05:06:29.816Z,98864.29
2019-04-30T05:08:59.177Z,98860.64
2019-04-30T05:11:31.672Z,98851.17
2019-04-30T05:13:59.914Z,98847.53
2019-04-30T05:16:28.975Z,98847.23
2019-04-30T05:18:58.655Z,98855.98
2019-04-30T05:21:39.656Z,98857.01
2019-04-30T05:23:59.080Z,98858.80
2019-04-30T05:26:28.680Z,98854.67
2019-04-30T05:28:59.171Z,98859.02
2019-04-30T05:31:28.943Z,98859.42
2019-04-30T05:33:58.721Z,98860.13
2019-04-30T05:36:29.210Z,98866.35
2019-04-30T05:38:58.749Z,98854.58
2019-04-30T05:41:28.980Z,98850.91
2019-04-30T05:43:59.125Z,98847.69
2019-04-30T05:46:29.826Z,98853.95
2019-04-30T05:48:59.436Z,98855.69
2019-04-30T05:51:28.906Z,98858.36
2019-04-30T05:53:59.264Z,98853.70
2019-04-30T05:56:30.205Z,98857.27
2019-04-30T05:58:59.310Z,98851.77
2019-04-30T06:01:29.539Z,98850.11
2019-04-30T06:03:59.443Z,98853.56
2019-04-30T06:06:29.000Z,98851.34
2019-04-30T06:09:14.766Z,98852.48
2019-04-30T06:11:52.826Z,98849.13
2019-04-30T06:14:47.992Z,98849.31
2019-04-30T06:17:09.277Z,98846.98
2019-04-30T06:19:39.148Z,98852.61
2019-04-30T06:22:10.850Z,98850.08
2019-04-30T06:24:39.552Z,98857.39
2019-04-30T06:27:10.581Z,98848.20
2019-04-30T06:29:39.660Z,98856.41
2019-04-30T06:32:08.783Z,98863.03
2019-04-30T06:34:41.835Z,98870.05
2019-04-30T06:37:10.220Z,98864.87
2019-04-30T06:39:38.947Z,98864.17
2019-04-30T06:42:12.451Z,98857.79
2019-04-30T06:44:41.863Z,98857.34
2019-04-30T06:47:09.801Z,98853.87
2019-04-30T06:49:39.376Z,98858.06
2019-04-30T06:52:18.180Z,98855.70
2019-04-30T06:54:39.787Z,98858.88
2019-04-30T06:57:09.682Z,98864.55
2019-04-30T06:59:39.731Z,98866.16
2019-04-30T07:02:09.262Z,98866.15
2019-04-30T07:04:40.025Z,98866.63
2019-04-30T07:07:09.245Z,98867.16
2019-04-30T07:09:55.922Z,98871.22
2019-04-30T07:12:27.839Z,98862.46
2019-04-30T07:14:54.266Z,98862.84
2019-04-30T07:17:22.988Z,98852.30
2019-04-30T07:19:56.536Z,98849.23
2019-04-30T07:22:36.728Z,98849.15
2019-04-30T07:24:52.708Z,98845.09
2019-04-30T07:27:24.117Z,98841.97
2019-04-30T07:29:52.049Z,98842.90
2019-04-30T07:32:20.773Z,98842.81
2019-04-30T07:34:49.940Z,98837.45
2019-04-30T07:37:24.202Z,98839.95
2019-04-30T07:39:49.455Z,98838.28
2019-04-30T07:42:19.223Z,98842.80
2019-04-30T07:44:50.246Z,98835.94
2019-04-30T07:47:19.518Z,98833.30
2019-04-30T07:49:52.967Z,98834.73
2019-04-30T07:52:21.559Z,98837.23
2019-04-30T07:54:51.876Z,98828.53
2019-04-30T07:57:20.599Z,98828.63
2019-04-30T07:59:49.840Z,98822.88
2019-04-30T08:02:20.873Z,98818.64
2019-04-30T08:04:51.319Z,98823.21
2019-04-30T08:07:20.648Z,98824.03
2019-04-30T08:09:49.576Z,98827.52
2019-04-30T08:12:26.033Z,98822.15
2019-04-30T08:14:50.187Z,98817.25
2019-04-30T08:17:19.004Z,98821.27
2019-04-30T08:19:48.965Z,98816.27
2019-04-30T08:22:19.677Z,98808.52
2019-04-30T08:24:49.178Z,98806.45
2019-04-30T08:27:19.632Z,98801.60
2019-04-30T08:29:49.937Z,98802.52
2019-04-30T08:32:19.179Z,98801.94
2019-04-30T08:34:50.116Z,98802.95
2019-04-30T08:37:20.251Z,98796.05
2019-04-30T08:39:49.685Z,98797.79
2019-04-30T08:42:28.991Z,98794.67
2019-04-30T08:44:49.279Z,98795.72
2019-04-30T08:47:18.818Z,98789.54
2019-04-30T08:49:50.017Z,98785.72
2019-04-30T08:52:19.793Z,98783.03
2019-04-30T08:54:49.599Z,98779.24
2019-04-30T08:57:19.197Z,98775.86
2019-04-30T08:59:49.470Z,98777.99
2019-04-30T09:02:19.687Z,98768.16
2019-04-30T09:04:50.286Z,98762.38
2019-04-30T09:07:19.724Z,98761.73
2019-04-30T09:09:48.915Z,98761.73
2019-04-30T09:12:19.632Z,98769.92
2019-04-30T09:14:49.104Z,98741.78
2019-04-30T09:17:19.913Z,98744.72
2019-04-30T09:19:49.125Z,98744.92
2019-04-30T09:22:19.517Z,98724.06
2019-04-30T09:24:49.678Z,98727.39
2019-04-30T09:27:19.555Z,98727.39
2019-04-30T09:29:49.202Z,98725.88
2019-04-30T09:32:19.291Z,98727.25
2019-04-30T09:34:48.933Z,98698.86
2019-04-30T09:37:18.756Z,98698.86
2019-04-30T09:39:49.430Z,98702.34
2019-04-30T09:42:19.462Z,98695.08
2019-04-30T09:44:49.233Z,98695.55
2019-04-30T09:47:20.057Z,98695.92
2019-04-30T09:49:49.406Z,98686.88
2019-04-30T09:52:19.301Z,98683.55
2019-04-30T09:54:50.084Z,98679.07
2019-04-30T09:57:19.444Z,98679.07
2019-04-30T09:59:48.697Z,98663.98
2019-04-30T10:02:19.159Z,98663.98
2019-04-30T10:04:49.761Z,98674.60
2019-04-30T10:07:19.499Z,98669.34
2019-04-30T10:09:50.664Z,98672.66
2019-04-30T10:12:19.666Z,98665.75
2019-04-30T10:14:49.502Z,98651.47
2019-04-30T10:17:22.846Z,98656.11
2019-04-30T10:19:51.720Z,98656.12
2019-04-30T10:22:20.441Z,98647.04
2019-04-30T10:24:49.509Z,98643.33
2019-04-30T10:27:19.156Z,98640.84
2019-04-30T10:29:49.354Z,98634.47
2019-04-30T10:32:18.747Z,98634.20
2019-04-30T10:34:47.951Z,98624.95
2019-04-30T10:37:18.752Z,98624.92
2019-04-30T10:39:48.998Z,98621.69
2019-04-30T10:42:17.700Z,98621.74
2019-04-30T10:44:46.416Z,98616.27
2019-04-30T10:47:15.830Z,98620.23
2019-04-30T10:49:44.670Z,98615.39
2019-04-30T10:52:13.394Z,98610.55
2019-04-30T10:54:42.115Z,98605.30
2019-04-30T10:57:10.864Z,98600.52
2019-04-30T10:59:39.678Z,98598.12
2019-04-30T11:02:09.081Z,98586.62
2019-04-30T11:04:39.609Z,98580.62
2019-04-30T11:07:08.718Z,98571.42
2019-04-30T11:09:39.379Z,98570.36
2019-04-30T11:12:09.458Z,98556.64
2019-04-30T11:14:38.357Z,98557.75
2019-04-30T11:17:09.643Z,98559.40
2019-04-30T11:19:39.058Z,98550.95
2019-04-30T11:22:08.200Z,98553.09
2019-04-30T11:24:53.394Z,98552.61
2019-04-30T11:27:10.165Z,98546.93
2019-04-30T11:29:39.379Z,98553.38
2019-04-30T11:32:12.556Z,98546.55
2019-04-30T11:34:41.644Z,98545.36
2019-04-30T11:37:10.354Z,98539.52
2019-04-30T11:39:39.080Z,98535.46
2019-04-30T11:42:07.878Z,98534.97
2019-04-30T11:44:38.665Z,98529.91
2019-04-30T11:47:09.968Z,98522.86
2019-04-30T11:49:39.527Z,98521.05
2019-04-30T11:52:08.344Z,98516.88
2019-04-30T11:54:48.755Z,98512.34
2019-04-30T11:57:08.929Z,98512.38
2019-04-30T11:59:39.536Z,98508.91
2019-04-30T12:02:10.135Z,98509.83
2019-04-30T12:04:39.424Z,98505.79
2019-04-30T12:07:18.792Z,98508.67
2019-04-30T12:09:53.110Z,98506.67
2019-04-30T12:12:21.826Z,98504.09
2019-04-30T12:14:50.543Z,98504.89
2019-04-30T12:17:19.298Z,98498.25
2019-04-30T12:19:48.861Z,98496.77
2019-04-30T12:22:20.014Z,98501.13
2019-04-30T12:24:48.880Z,98492.74
2019-04-30T12:27:18.773Z,98488.38
2019-04-30T12:29:49.470Z,98479.83
2019-04-30T12:32:19.217Z,98492.25
2019-04-30T12:34:48.489Z,98484.38
2019-04-30T12:37:18.992Z,98487.76
2019-04-30T12:39:49.164Z,98476.56
2019-04-30T12:42:18.856Z,98475.72
2019-04-30T12:44:49.440Z,98473.01
2019-04-30T12:47:21.763Z,98467.84
2019-04-30T12:49:53.443Z,98466.99
2019-04-30T12:52:29.889Z,98465.95
2019-04-30T12:55:15.145Z,98466.52
2019-04-30T12:57:41.303Z,98451.34
2019-04-30T13:00:11.931Z,98451.81
2019-04-30T13:02:40.656Z,98451.81
2019-04-30T13:05:10.790Z,98453.80
2019-04-30T13:07:40.410Z,98445.89
2019-04-30T13:10:09.994Z,98439.06
2019-04-30T13:12:39.732Z,98437.98
2019-04-30T13:15:10.886Z,98431.56
2019-04-30T13:17:39.661Z,98427.41
2019-04-30T13:20:18.615Z,98432.08
2019-04-30T13:22:39.343Z,98444.64
2019-04-30T13:25:09.526Z,98439.72
2019-04-30T13:27:39.871Z,98438.08
2019-04-30T13:30:11.366Z,98443.09
2019-04-30T13:32:41.657Z,98445.28
2019-04-30T13:35:11.331Z,98446.47
2019-04-30T13:37:41.620Z,98453.30
2019-04-30T13:40:12.114Z,98436.81
2019-04-30T13:42:42.526Z,98440.17
2019-04-30T13:45:11.440Z,98430.94
2019-04-30T13:47:40.157Z,98431.80
2019-04-30T13:50:10.078Z,98435.87
2019-04-30T13:52:39.036Z,98445.37
2019-04-30T13:55:10.730Z,98432.75
2019-04-30T13:57:39.288Z,98440.31
2019-04-30T14:00:12.247Z,98437.72
2019-04-30T14:02:44.800Z,98436.11
2019-04-30T14:05:14.730Z,98441.39
2019-04-30T14:07:57.059Z,98441.02
2019-04-30T14:10:25.982Z,98435.12
2019-04-30T14:12:56.266Z,98444.34
2019-04-30T14:15:25.373Z,98444.79
2019-04-30T14:17:54.224Z,98455.53
2019-04-30T14:20:23.119Z,98443.81
2019-04-30T14:22:51.993Z,98449.06
2019-04-30T14:25:20.706Z,98444.91
2019-04-30T14:27:54.530Z,98441.73
2019-04-30T14:30:20.805Z,98444.20
2019-04-30T14:32:50.757Z,98446.08
2019-04-30T14:35:19.625Z,98436.46
2019-04-30T14:37:54.577Z,98448.24
2019-04-30T14:40:24.138Z,98444.80
2019-04-30T14:43:02.156Z,98451.89
2019-04-30T14:45:42.299Z,98440.09
2019-04-30T14:48:23.743Z,98440.98
2019-04-30T14:50:52.746Z,98433.27
2019-04-30T14:53:30.524Z,98432.45
2019-04-30T14:56:08.884Z,98440.91
2019-04-30T14:58:50.055Z,98433.64
2019-04-30T15:01:20.347Z,98436.80
2019-04-30T15:03:49.542Z,98443.80
2019-04-30T15:06:19.410Z,98443.73
2019-04-30T15:08:49.502Z,98452.90
2019-04-30T15:11:19.053Z,98455.06
2019-04-30T15:13:49.420Z,98453.53
2019-04-30T15:16:18.224Z,98447.77
2019-04-30T15:18:46.941Z,98457.52
2019-04-30T15:21:15.813Z,98459.56
2019-04-30T15:23:58.548Z,98457.73
2019-04-30T15:26:25.205Z,98465.45
2019-04-30T15:28:54.150Z,98478.28
2019-04-30T15:31:22.868Z,98495.26
2019-04-30T15:34:02.561Z,98502.42
2019-04-30T15:36:26.504Z,98513.01
2019-04-30T15:38:56.796Z,98514.37
2019-04-30T15:41:25.771Z,98502.56
2019-04-30T15:43:54.486Z,98485.70
2019-04-30T15:46:23.507Z,98504.64
2019-04-30T15:48:52.372Z,98513.82
2019-04-30T15:51:31.483Z,98512.69
2019-04-30T15:54:01.255Z,98527.19
2019-04-30T15:56:37.132Z,98529.48
2019-04-30T15:59:18.971Z,98537.34
2019-04-30T16:01:55.185Z,98527.30
2019-04-30T16:04:38.498Z,98527.33
2019-04-30T16:07:08.487Z,98528.53
2019-04-30T16:09:38.851Z,98530.66
2019-04-30T16:12:20.103Z,98528.41
2019-04-30T16:14:48.596Z,98534.88
2019-04-30T16:17:20.591Z,98546.63
2019-04-30T16:19:49.527Z,98550.61
2019-04-30T16:22:19.221Z,98550.83
2019-04-30T16:24:49.603Z,98559.50
2019-04-30T16:27:19.159Z,98559.11
2019-04-30T16:29:49.807Z,98562.55
2019-04-30T16:32:19.267Z,98569.19
2019-04-30T16:34:49.846Z,98584.37
2019-04-30T16:37:20.243Z,98581.36
2019-04-30T16:39:49.071Z,98579.64
2019-04-30T16:42:19.052Z,98580.56
2019-04-30T16:44:48.030Z,98591.19
2019-04-30T16:47:17.194Z,98601.22
2019-04-30T16:49:46.058Z,98596.66
2019-04-30T16:52:14.811Z,98595.48
2019-04-30T16:54:43.526Z,98605.70
2019-04-30T16:57:12.309Z,98604.34
2019-04-30T16:59:42.340Z,98599.75
2019-04-30T17:02:11.845Z,98597.19
2019-04-30T17:04:57.527Z,98599.78
2019-04-30T17:07:30.887Z,98602.95
2019-04-30T17:10:10.060Z,98610.13
2019-04-30T17:12:43.100Z,98615.81
2019-04-30T17:15:25.625Z,98625.85
2019-04-30T17:17:54.360Z,98619.58
2019-04-30T17:20:23.088Z,98626.50
2019-04-30T17:22:52.145Z,98630.86
2019-04-30T17:25:20.836Z,98640.17
2019-04-30T17:27:49.553Z,98638.77
2019-04-30T17:30:19.696Z,98647.55
2019-04-30T17:32:49.869Z,98650.72
2019-04-30T17:35:19.103Z,98661.84
2019-04-30T17:37:48.058Z,98673.59
2019-04-30T17:40:19.102Z,98679.95
2019-04-30T17:42:47.551Z,98680.07
2019-04-30T17:45:19.379Z,98698.74
2019-04-30T17:47:47.921Z,98701.00
2019-04-30T17:50:18.600Z,98701.92
2019-04-30T17:52:47.235Z,98700.50
2019-04-30T17:55:15.960Z,98701.20
2019-04-30T17:57:44.688Z,98693.48
2019-04-30T18:00:19.372Z,98685.98
2019-04-30T18:02:45.412Z,98679.91
2019-04-30T18:05:14.130Z,98682.09
2019-04-30T18:07:42.897Z,98670.81
2019-04-30T18:10:13.207Z,98671.71
2019-04-30T18:12:41.930Z,98676.66
2019-04-30T18:15:15.854Z,98676.21
2019-04-30T18:17:46.234Z,98669.20
2019-04-30T18:20:32.365Z,98682.64
2019-04-30T18:23:18.750Z,98673.25
2019-04-30T18:25:52.881Z,98671.38
2019-04-30T18:28:21.595Z,98681.90
2019-04-30T18:30:50.421Z,98683.80
2019-04-30T18:33:20.089Z,98673.96
2019-04-30T18:35:48.819Z,98680.21
2019-04-30T18:38:17.850Z,98688.55
2019-04-30T18:40:49.557Z,98700.16
2019-04-30T18:43:20.539Z,98710.42
2019-04-30T18:45:49.484Z,98712.95
2019-04-30T18:48:19.531Z,98708.00
2019-04-30T18:50:48.503Z,98711.72
2019-04-30T18:53:18.742Z,98713.69
2019-04-30T18:55:50.521Z,98724.72
2019-04-30T18:58:19.999Z,98726.74
2019-04-30T19:00:49.473Z,98733.78
2019-04-30T19:03:21.767Z,98740.48
2019-04-30T19:05:51.228Z,98744.11
2019-04-30T19:08:21.528Z,98745.09
2019-04-30T19:11:08.995Z,98756.78
2019-04-30T19:13:56.221Z,98767.57
2019-04-30T19:16:29.533Z,98770.33
2019-04-30T19:19:00.978Z,98778.34
2019-04-30T19:21:29.817Z,98772.34
2019-04-30T19:23:59.496Z,98772.54
2019-04-30T19:26:29.296Z,98780.25
2019-04-30T19:28:58.083Z,98773.13
2019-04-30T19:31:29.549Z,98788.73
2019-04-30T19:33:58.853Z,98793.09
2019-04-30T19:36:35.899Z,98802.19
2019-04-30T19:38:59.789Z,98811.02
2019-04-30T19:41:28.830Z,98818.84
2019-04-30T19:43:57.602Z,98826.42
2019-04-30T19:46:26.355Z,98834.20
2019-04-30T19:48:55.071Z,98838.19
2019-04-30T19:51:23.798Z,98840.91
2019-04-30T19:53:52.679Z,98845.89
2019-04-30T19:56:21.395Z,98847.53
2019-04-30T19:59:01.457Z,98841.78
2019-04-30T20:01:20.723Z,98846.78
2019-04-30T20:03:49.438Z,98844.95
2019-04-30T20:06:19.148Z,98844.94
2019-04-30T20:08:48.220Z,98838.89
2019-04-30T20:11:16.960Z,98837.23
2019-04-30T20:13:45.665Z,98837.38
2019-04-30T20:16:14.456Z,98837.98
2019-04-30T20:18:43.186Z,98835.57
2019-04-30T20:21:25.334Z,98842.70
2019-04-30T20:23:46.879Z,98846.00
2019-04-30T20:26:15.581Z,98853.34
2019-04-30T20:28:44.393Z,98840.14
2019-04-30T20:31:13.372Z,98840.89
2019-04-30T20:33:42.090Z,98835.34
2019-04-30T20:36:10.808Z,98844.04
2019-04-30T20:38:41.329Z,98829.61
2019-04-30T20:41:10.983Z,98832.44
2019-04-30T20:43:39.734Z,98838.65
2019-04-30T20:46:08.759Z,98839.12
2019-04-30T20:48:39.306Z,98839.54
2019-04-30T20:51:09.543Z,98842.52
2019-04-30T20:53:39.054Z,98844.39
2019-04-30T20:56:09.305Z,98840.67
2019-04-30T20:58:39.075Z,98847.20
2019-04-30T21:01:09.635Z,98843.69
2019-04-30T21:03:39.550Z,98846.25
2019-04-30T21:06:08.861Z,98853.09
2019-04-30T21:08:37.877Z,98853.94
2019-04-30T21:11:06.598Z,98853.98
2019-04-30T21:13:35.311Z,98857.87
2019-04-30T21:16:04.203Z,98858.47
2019-04-30T21:18:32.921Z,98866.44
2019-04-30T21:21:01.632Z,98867.14
2019-04-30T21:23:30.438Z,98869.02
2019-04-30T21:25:59.168Z,98883.24
2019-04-30T21:28:29.749Z,98882.27
2019-04-30T21:31:00.872Z,98877.77
2019-04-30T21:33:49.261Z,98874.27
2019-04-30T21:36:19.195Z,98881.36
2019-04-30T21:38:49.032Z,98891.27
2019-04-30T21:41:19.530Z,98894.63
2019-04-30T21:43:48.516Z,98899.84
2019-04-30T21:46:19.075Z,98896.53
2019-04-30T21:48:48.788Z,98889.48
2019-04-30T21:51:19.276Z,98886.33
2019-04-30T21:53:50.320Z,98881.80
2019-04-30T21:56:18.565Z,98885.54
2019-04-30T21:58:48.259Z,98896.92
2019-04-30T22:01:18.647Z,98906.58
2019-04-30T22:03:47.774Z,98899.61
2019-04-30T22:06:16.564Z,98894.64
2019-04-30T22:08:45.271Z,98897.31
2019-04-30T22:11:19.838Z,98896.36
2019-04-30T22:13:54.850Z,98900.62
2019-04-30T22:16:26.590Z,98902.86
2019-04-30T22:18:55.304Z,98901.42
2019-04-30T22:21:24.172Z,98912.37
2019-04-30T22:23:52.891Z,98910.08
2019-04-30T22:26:21.608Z,98909.86
2019-04-30T22:28:50.483Z,98905.97
2019-04-30T22:31:19.768Z,98896.30
2019-04-30T22:33:49.117Z,98904.97
2019-04-30T22:36:25.729Z,98899.34
2019-04-30T22:38:56.024Z,98904.96
2019-04-30T22:41:29.798Z,98904.69
2019-04-30T22:43:58.533Z,98908.89
2019-04-30T22:46:29.252Z,98904.22
2019-04-30T22:48:57.738Z,98905.03
2019-04-30T22:51:26.532Z,98899.95
2019-04-30T22:53:55.244Z,98897.50
2019-04-30T22:56:24.022Z,98892.62
2019-04-30T22:58:52.734Z,98896.91
2019-04-30T23:01:25.773Z,98904.70
2019-04-30T23:03:59.014Z,98902.14
2019-04-30T23:06:27.739Z,98889.73
2019-04-30T23:08:56.446Z,98890.36
2019-04-30T23:11:26.460Z,98888.18
2019-04-30T23:13:55.178Z,98893.30
2019-04-30T23:16:23.897Z,98890.14
2019-04-30T23:18:53.472Z,98890.33
2019-04-30T23:21:22.188Z,98884.45
2019-04-30T23:23:50.904Z,98892.47
2019-04-30T23:26:19.682Z,98888.91
2019-04-30T23:28:48.406Z,98894.84
2019-04-30T23:31:17.119Z,98893.33
2019-04-30T23:33:45.876Z,98889.57
2019-04-30T23:36:14.658Z,98891.50
2019-04-30T23:38:43.372Z,98889.70
2019-04-30T23:41:12.327Z,98898.04
2019-04-30T23:43:41.046Z,98897.59
2019-04-30T23:46:09.755Z,98900.23
2019-04-30T23:48:38.626Z,98902.29
2019-04-30T23:51:07.338Z,98903.53
2019-04-30T23:53:36.059Z,98907.62
2019-04-30T23:56:05.085Z,98906.16
2019-04-30T23:58:33.795Z,98906.62
